Time;durP1;ratioP1;P1;durP2;ratioP2;P2;SDS_P1;SDS_P2;PMS_P1;PMS_P2;Temp;Humidity;BMP_temperature;BMP_pressure;BME280_temperature;BME280_humidity;BME280_pressure;Samples;Min_cycle;Max_cycle;Signal;HPM_P1;HPM_P2
2022/08/19 00:01:40;;;;;;;16.65;15.05;;;;;;;28.49;46.90;99346.16;4129468;28;20241;-64
2022/08/19 00:03:42;;;;;;;16.70;14.95;;;;;;;28.15;47.94;99352.50;4123739;28;20316;-64
2022/08/19 00:05:44;;;;;;;16.50;14.75;;;;;;;28.29;47.87;99344.47;4118876;28;20787;-63
2022/08/19 00:07:45;;;;;;;16.73;15.20;;;;;;;28.04;48.38;99350.09;4123309;28;20242;-64
2022/08/19 00:09:47;;;;;;;16.40;14.75;;;;;;;27.88;48.13;99354.88;4119810;28;20234;-64
2022/08/19 00:11:51;;;;;;;16.27;14.68;;;;;;;28.36;47.69;99358.59;4128098;28;20238;-64
2022/08/19 00:13:56;;;;;;;16.25;14.57;;;;;;;28.39;47.51;99359.94;4124592;28;20237;-66
2022/08/19 00:15:59;;;;;;;17.27;15.45;;;;;;;28.39;47.32;99354.47;4129301;28;20233;-65
2022/08/19 00:18:01;;;;;;;16.30;14.75;;;;;;;27.91;48.48;99349.66;4123198;28;20226;-65
2022/08/19 00:20:03;;;;;;;16.38;14.77;;;;;;;28.18;47.62;99359.31;4122241;28;20221;-65
2022/08/19 00:22:05;;;;;;;17.15;15.45;;;;;;;27.72;48.98;99354.97;4128480;28;20610;-64
2022/08/19 00:24:09;;;;;;;15.98;14.48;;;;;;;27.71;48.93;99342.41;4123209;28;20378;-64
2022/08/19 00:26:11;;;;;;;16.75;15.15;;;;;;;27.46;49.18;99346.09;4128510;28;20264;-64
2022/08/19 00:28:12;;;;;;;16.23;14.63;;;;;;;27.50;48.92;99332.69;4128597;28;20234;-65
2022/08/19 00:30:14;;;;;;;17.05;15.25;;;;;;;27.78;48.41;99321.06;4124345;28;20649;-64
2022/08/19 00:32:16;;;;;;;16.52;14.85;;;;;;;27.93;48.14;99327.50;4126535;28;20234;-64
2022/08/19 00:34:20;;;;;;;16.77;15.00;;;;;;;27.67;48.52;99341.38;4124551;28;20364;-64
2022/08/19 00:36:22;;;;;;;15.50;13.90;;;;;;;27.64;49.06;99331.00;4126936;28;20668;-66
2022/08/19 00:38:24;;;;;;;16.33;14.55;;;;;;;28.22;47.31;99335.75;4126058;28;20665;-65
2022/08/19 00:40:38;;;;;;;15.43;14.00;;;;;;;25.68;52.63;99341.44;4129289;28;20269;-65
2022/08/19 00:42:40;;;;;;;15.90;14.30;;;;;;;26.46;51.20;99315.84;4121115;28;20238;-65
2022/08/19 00:44:42;;;;;;;16.50;14.90;;;;;;;26.63;51.19;99320.22;4124371;28;20895;-66
2022/08/19 00:46:46;;;;;;;16.60;14.90;;;;;;;26.49;51.43;99342.56;4119248;28;20711;-65
2022/08/19 00:49:02;;;;;;;16.13;13.90;;;;;;;26.63;51.12;99328.38;4127938;28;20253;-65
2022/08/19 00:51:05;;;;;;;16.83;15.02;;;;;;;27.41;49.61;99333.28;4127981;28;20238;-65
2022/08/19 00:53:07;;;;;;;15.95;14.35;;;;;;;27.79;48.78;99336.34;4128877;28;20874;-65
2022/08/19 00:55:11;;;;;;;15.93;14.32;;;;;;;27.61;49.12;99332.38;4122230;28;20261;-66
2022/08/19 00:57:16;;;;;;;15.90;14.18;;;;;;;27.75;48.94;99326.28;4126330;28;20230;-65
2022/08/19 00:59:19;;;;;;;15.77;14.13;;;;;;;27.62;49.40;99319.53;4122879;28;20304;-65
2022/08/19 01:01:43;;;;;;;17.13;15.00;;;;;;;28.55;47.61;99319.59;4125059;28;20266;-65
2022/08/19 01:03:44;;;;;;;17.45;15.70;;;;;;;28.43;47.65;99328.19;4127488;28;21936;-64
2022/08/19 01:05:59;;;;;;;16.35;14.75;;;;;;;28.14;48.57;99334.44;4126132;28;20249;-64
2022/08/19 01:08:04;;;;;;;15.82;14.20;;;;;;;28.11;48.17;99339.66;4130011;28;20654;-64
2022/08/19 01:10:10;;;;;;;15.38;13.77;;;;;;;28.14;48.01;99353.56;4127019;28;20230;-66
2022/08/19 01:12:12;;;;;;;16.08;14.48;;;;;;;28.09;48.10;99355.53;4123788;28;20245;-66
2022/08/19 01:14:15;;;;;;;16.52;14.80;;;;;;;27.86;48.31;99355.16;4120161;28;20239;-66
2022/08/19 01:16:19;;;;;;;15.80;14.20;;;;;;;27.54;49.57;99355.59;4126460;28;20318;-65
2022/08/19 01:18:23;;;;;;;15.98;14.30;;;;;;;27.78;49.13;99363.94;4126265;28;20300;-65
2022/08/19 01:20:25;;;;;;;15.20;13.63;;;;;;;26.90;50.54;99364.28;4128785;28;20747;-65
2022/08/19 01:22:36;;;;;;;16.75;13.68;;;;;;;27.69;49.64;99332.88;4126263;28;20238;-65
2022/08/19 01:24:37;;;;;;;14.70;13.30;;;;;;;27.58;50.08;99338.38;4122575;28;20237;-66
2022/08/19 01:26:50;;;;;;;14.73;13.23;;;;;;;27.52;50.08;99344.97;4127314;28;20765;-65
2022/08/19 01:28:55;;;;;;;14.55;13.15;;;;;;;27.95;49.14;99331.56;4121470;28;20234;-66
2022/08/19 01:31:01;;;;;;;16.70;13.93;;;;;;;27.97;49.15;99336.75;4125473;28;20763;-66
2022/08/19 01:33:08;;;;;;;14.80;13.30;;;;;;;27.86;49.32;99349.69;4122902;28;20293;-65
2022/08/19 01:35:11;;;;;;;15.35;13.85;;;;;;;27.90;49.21;99348.00;4117806;28;20325;-65
2022/08/19 01:37:14;;;;;;;15.55;13.98;;;;;;;27.99;49.46;99348.25;4106475;28;20284;-66
2022/08/19 01:39:28;;;;;;;15.35;13.75;;;;;;;28.29;48.54;99360.03;4119955;28;20237;-64
2022/08/19 01:41:29;;;;;;;15.57;14.07;;;;;;;28.25;48.67;99361.72;4121659;28;20238;-64
2022/08/19 01:43:32;;;;;;;14.95;13.52;;;;;;;28.08;49.16;99367.56;4149482;28;20267;-67
2022/08/19 01:45:36;;;;;;;15.30;13.90;;;;;;;27.96;49.51;99373.41;4121037;28;20230;-65
2022/08/19 01:47:37;;;;;;;14.75;13.45;;;;;;;27.70;50.62;99375.47;4120190;28;20242;-65
2022/08/19 01:49:39;;;;;;;15.48;13.85;;;;;;;27.94;49.49;99361.94;4131456;28;20249;-65
2022/08/19 01:51:41;;;;;;;14.18;12.82;;;;;;;27.90;49.88;99366.31;4123734;28;20238;-66
2022/08/19 01:53:42;;;;;;;15.73;14.23;;;;;;;27.79;50.45;99369.13;4130282;28;20323;-65
2022/08/19 01:55:45;;;;;;;15.32;13.80;;;;;;;27.76;50.28;99350.56;4119528;28;20231;-65
2022/08/19 01:57:57;;;;;;;17.17;14.57;;;;;;;28.00;49.90;99363.50;4127064;28;20353;-65
2022/08/19 02:00:00;;;;;;;15.75;14.13;;;;;;;28.22;49.46;99354.09;4130335;28;20244;-65
2022/08/19 02:02:08;;;;;;;15.52;14.10;;;;;;;28.41;49.51;99351.44;4122637;28;20721;-64
2022/08/19 02:04:09;;;;;;;16.83;15.30;;;;;;;27.89;50.43;99353.78;4128056;28;20245;-65
2022/08/19 02:06:11;;;;;;;16.33;14.90;;;;;;;28.16;49.70;99342.41;4123564;28;20289;-65
2022/08/19 02:08:13;;;;;;;16.67;14.95;;;;;;;27.49;50.58;99352.91;4127579;28;20280;-65
2022/08/19 02:10:19;;;;;;;15.40;13.90;;;;;;;27.94;50.38;99349.09;4124817;28;20230;-65
2022/08/19 02:12:21;;;;;;;16.10;14.60;;;;;;;27.87;50.25;99348.59;4124661;28;20261;-65
2022/08/19 02:14:23;;;;;;;15.88;14.27;;;;;;;27.72;50.69;99354.16;4132946;28;20704;-65
2022/08/19 02:16:24;;;;;;;16.25;14.60;;;;;;;27.65;51.25;99346.25;4121803;28;20284;-65
2022/08/19 02:18:26;;;;;;;16.52;14.82;;;;;;;27.63;50.49;99362.13;4124397;28;20233;-65
2022/08/19 02:20:28;;;;;;;16.88;15.07;;;;;;;28.27;49.38;99357.59;4125430;28;20234;-68
2022/08/19 02:22:30;;;;;;;16.65;15.05;;;;;;;27.36;51.36;99362.53;4124719;28;20762;-66
2022/08/19 02:24:32;;;;;;;16.98;15.07;;;;;;;27.73;50.78;99356.59;4120805;28;20238;-66
2022/08/19 02:26:33;;;;;;;17.05;15.45;;;;;;;27.84;50.27;99351.06;4125336;28;20289;-65
2022/08/19 02:28:36;;;;;;;16.95;15.25;;;;;;;28.03;50.35;99351.22;4123315;28;20748;-66
2022/08/19 02:30:38;;;;;;;19.13;17.20;;;;;;;28.16;49.72;99350.59;4124034;28;20321;-66
2022/08/19 02:32:40;;;;;;;18.73;17.05;;;;;;;28.11;50.20;99351.41;4120668;28;20246;-65
2022/08/19 02:34:46;;;;;;;18.60;16.90;;;;;;;27.85;50.53;99361.72;4124071;28;20665;-66
2022/08/19 02:36:48;;;;;;;20.00;18.10;;;;;;;27.87;50.57;99351.34;4119552;28;20292;-65
2022/08/19 02:38:53;;;;;;;20.88;18.85;;;;;;;27.89;50.95;99351.06;4127003;28;20279;-65
2022/08/19 02:41:02;;;;;;;20.67;18.67;;;;;;;28.34;49.85;99340.84;4125234;28;21079;-66
2022/08/19 02:43:07;;;;;;;21.50;19.25;;;;;;;28.15;49.93;99351.69;4127529;28;20232;-65
2022/08/19 02:45:09;;;;;;;20.33;18.08;;;;;;;28.15;50.06;99351.69;4122211;28;20226;-66
2022/08/19 02:47:13;;;;;;;21.05;19.08;;;;;;;28.14;50.17;99347.28;4122944;28;20668;-65
2022/08/19 02:49:16;;;;;;;20.30;18.40;;;;;;;27.72;50.62;99344.06;4127217;28;20614;-65
2022/08/19 02:51:26;;;;;;;20.42;18.45;;;;;;;27.94;50.56;99343.63;4120573;28;20293;-65
2022/08/19 02:53:28;;;;;;;20.50;18.55;;;;;;;27.87;51.17;99340.41;4123519;28;20237;-65
2022/08/19 02:55:30;;;;;;;21.60;19.40;;;;;;;28.04;50.07;99344.63;4118274;28;20293;-65
2022/08/19 02:57:47;;;;;;;22.35;20.05;;;;;;;27.73;51.36;99336.66;4122532;28;20233;-65
2022/08/19 02:59:49;;;;;;;20.80;18.90;;;;;;;28.05;50.50;99335.34;4123935;28;20230;-66
2022/08/19 03:01:51;;;;;;;20.88;18.67;;;;;;;27.65;51.03;99334.53;4119301;28;20230;-65
2022/08/19 03:03:55;;;;;;;21.33;19.23;;;;;;;27.71;51.20;99341.59;4122259;28;20230;-65
2022/08/19 03:06:09;;;;;;;20.45;18.45;;;;;;;27.92;50.39;99339.53;4120414;28;20237;-66
2022/08/19 03:08:12;;;;;;;20.67;18.55;;;;;;;27.77;50.53;99346.75;4119782;28;20238;-66
2022/08/19 03:10:13;;;;;;;21.05;19.05;;;;;;;28.02;49.83;99357.75;4129013;28;20256;-66
2022/08/19 03:12:15;;;;;;;19.85;18.05;;;;;;;27.72;50.54;99354.97;4123467;28;20222;-66
2022/08/19 03:14:17;;;;;;;20.30;18.40;;;;;;;27.79;49.66;99355.47;4123075;28;20234;-64
2022/08/19 03:16:22;;;;;;;19.40;17.40;;;;;;;27.38;50.60;99350.25;4123805;28;20292;-67
2022/08/19 03:18:24;;;;;;;19.48;17.48;;;;;;;27.70;49.48;99345.44;4122298;28;20297;-64
2022/08/19 03:20:28;;;;;;;20.05;18.15;;;;;;;27.88;49.58;99344.75;4123128;28;20238;-65
2022/08/19 03:22:29;;;;;;;20.98;18.95;;;;;;;27.75;48.98;99350.84;4123785;28;20230;-65
2022/08/19 03:24:31;;;;;;;20.05;18.08;;;;;;;28.02;48.61;99360.50;4122512;28;20659;-65
2022/08/19 03:26:42;;;;;;;19.67;17.75;;;;;;;28.00;48.24;99364.34;4122907;28;20612;-65
2022/08/19 03:28:49;;;;;;;19.80;17.73;;;;;;;27.60;48.97;99363.50;4119748;28;20291;-65
2022/08/19 03:31:01;;;;;;;20.77;18.63;;;;;;;27.75;48.55;99367.25;4123934;28;20236;-65
2022/08/19 03:33:04;;;;;;;20.27;18.00;;;;;;;27.54;48.85;99367.34;4122898;28;20261;-65
2022/08/19 03:35:06;;;;;;;21.42;19.13;;;;;;;27.55;48.70;99366.25;4124072;28;20238;-66
2022/08/19 03:37:12;;;;;;;20.60;18.60;;;;;;;27.48;49.27;99367.66;4125487;28;20234;-64
2022/08/19 03:39:14;;;;;;;25.92;18.13;;;;;;;27.54;48.79;99369.25;4127419;28;20238;-64
2022/08/19 03:41:19;;;;;;;20.40;18.38;;;;;;;27.63;48.61;99368.44;4123091;28;20241;-66
2022/08/19 03:43:21;;;;;;;19.75;17.80;;;;;;;27.16;49.10;99367.00;4126194;28;20740;-64
2022/08/19 03:45:23;;;;;;;20.08;18.08;;;;;;;27.01;49.33;99369.72;4116418;28;20238;-64
2022/08/19 03:47:25;;;;;;;19.90;17.90;;;;;;;27.35;48.61;99366.38;4124724;28;20230;-64
2022/08/19 03:49:30;;;;;;;19.65;17.63;;;;;;;26.95;49.55;99374.38;4130378;28;20316;-64
2022/08/19 03:51:35;;;;;;;20.75;18.73;;;;;;;26.56;49.92;99379.66;4125857;28;20238;-64
2022/08/19 03:53:36;;;;;;;19.42;17.45;;;;;;;26.79;50.04;99372.78;4124521;28;20237;-64
2022/08/19 03:55:41;;;;;;;19.27;17.27;;;;;;;26.81;50.11;99365.16;4121626;28;20295;-64
2022/08/19 03:57:44;;;;;;;19.23;17.27;;;;;;;26.79;49.86;99372.78;4128987;28;20297;-67
2022/08/19 03:59:46;;;;;;;20.52;18.35;;;;;;;27.59;48.59;99369.22;4125653;28;20718;-64
2022/08/19 04:01:48;;;;;;;20.35;18.25;;;;;;;27.14;49.15;99379.25;4126701;28;20315;-65
2022/08/19 04:03:49;;;;;;;19.08;17.08;;;;;;;27.04;49.78;99370.00;4127720;28;20253;-66
2022/08/19 04:05:51;;;;;;;18.98;16.98;;;;;;;26.89;50.12;99370.88;4125182;28;20234;-65
2022/08/19 04:07:53;;;;;;;18.77;17.00;;;;;;;26.49;50.93;99358.91;4127715;28;20234;-64
2022/08/19 04:09:55;;;;;;;21.00;18.75;;;;;;;26.61;50.66;99357.84;4130976;28;20229;-65
2022/08/19 04:11:57;;;;;;;20.75;18.52;;;;;;;27.12;49.31;99368.63;4124381;28;20237;-64
2022/08/19 04:14:00;;;;;;;22.42;18.52;;;;;;;27.06;49.42;99376.03;4127632;28;20237;-65
2022/08/19 04:16:06;;;;;;;20.42;18.35;;;;;;;27.14;48.85;99377.34;4127293;28;20317;-66
2022/08/19 04:18:10;;;;;;;21.55;19.25;;;;;;;26.49;50.67;99372.53;4126276;28;20288;-65
2022/08/19 04:20:11;;;;;;;21.20;18.90;;;;;;;27.11;49.55;99364.25;4125488;28;20292;-65
2022/08/19 04:22:13;;;;;;;22.02;19.77;;;;;;;27.29;48.68;99365.56;4128870;28;20226;-65
2022/08/19 04:24:15;;;;;;;20.60;18.50;;;;;;;27.07;48.92;99380.38;4125825;28;20237;-65
2022/08/19 04:26:20;;;;;;;21.15;18.90;;;;;;;26.52;50.52;99373.91;4125202;28;20666;-66
2022/08/19 04:28:22;;;;;;;21.60;19.45;;;;;;;27.19;49.15;99363.69;4123913;28;20250;-65
2022/08/19 04:30:24;;;;;;;23.13;20.73;;;;;;;26.66;49.89;99375.00;4127969;28;20289;-65
2022/08/19 04:32:26;;;;;;;22.02;19.83;;;;;;;26.88;49.11;99373.88;4122639;28;21576;-66
2022/08/19 04:34:29;;;;;;;22.17;19.88;;;;;;;26.68;49.51;99372.00;4124635;28;20602;-66
2022/08/19 04:36:34;;;;;;;21.83;19.60;;;;;;;27.04;49.42;99350.06;4123885;28;20238;-66
2022/08/19 04:38:36;;;;;;;20.27;18.13;;;;;;;26.35;50.71;99368.72;4126836;28;20238;-66
2022/08/19 04:43:13;;;;;;;21.95;19.73;;;;;;;26.49;49.88;99377.19;4129443;28;20257;-66
2022/08/19 04:45:15;;;;;;;21.65;19.55;;;;;;;26.61;50.27;99364.09;4125414;28;20241;-65
2022/08/19 04:47:17;;;;;;;20.83;18.67;;;;;;;26.53;50.23;99373.66;4121972;28;20245;-65
2022/08/19 04:49:39;;;;;;;20.48;18.45;;;;;;;26.46;50.23;99367.63;4126448;28;20727;-65
2022/08/19 04:51:44;;;;;;;21.38;19.23;;;;;;;26.51;50.91;99367.66;4129949;28;20238;-66
2022/08/19 04:53:46;;;;;;;21.85;18.35;;;;;;;26.79;50.09;99368.16;4124043;28;20234;-65
2022/08/19 04:55:47;;;;;;;20.27;18.13;;;;;;;26.65;50.17;99372.53;4123707;28;20284;-65
2022/08/19 04:57:50;;;;;;;21.25;18.98;;;;;;;25.78;52.13;99373.31;4125249;28;20620;-65
2022/08/19 04:59:56;;;;;;;20.95;18.80;;;;;;;26.88;50.04;99360.22;4129057;28;20506;-64
2022/08/19 05:01:57;;;;;;;21.95;19.58;;;;;;;25.93;51.47;99377.94;4125152;28;20237;-71
2022/08/19 05:04:01;;;;;;;20.52;18.52;;;;;;;25.41;52.62;99385.19;4130365;28;20789;-65
2022/08/19 05:06:07;;;;;;;21.98;19.67;;;;;;;26.17;51.10;99381.00;4125458;28;20230;-66
2022/08/19 05:08:09;;;;;;;22.38;19.98;;;;;;;25.52;52.32;99389.56;4124536;28;20292;-66
2022/08/19 05:10:14;;;;;;;22.80;20.42;;;;;;;26.87;49.89;99394.84;4124203;28;20621;-65
2022/08/19 05:12:17;;;;;;;22.63;20.27;;;;;;;27.05;49.01;99400.81;4124019;28;20710;-66
2022/08/19 05:14:20;;;;;;;22.55;20.25;;;;;;;27.13;48.99;99404.91;4126039;28;20777;-66
2022/08/19 05:16:24;;;;;;;23.70;21.30;;;;;;;27.50;48.65;99396.31;4127793;28;20300;-65
2022/08/19 05:23:06;;;;;;;23.13;20.83;;;;;;;27.84;47.60;99422.94;4129709;28;20226;-65
2022/08/19 05:25:18;;;;;;;25.23;22.45;;;;;;;27.64;48.11;99423.84;4126162;28;20617;-65
2022/08/19 05:27:20;;;;;;;24.65;21.13;;;;;;;27.43;48.49;99421.19;4127927;28;20238;-65
2022/08/19 05:29:24;;;;;;;24.08;21.48;;;;;;;27.27;48.63;99433.25;4124978;28;20698;-65
2022/08/19 05:31:32;;;;;;;24.20;21.77;;;;;;;27.15;49.02;99438.22;4120548;28;20782;-65
2022/08/19 05:33:34;;;;;;;23.65;21.25;;;;;;;27.14;48.72;99437.38;4123624;28;20807;-65
2022/08/19 05:35:37;;;;;;;22.98;20.77;;;;;;;26.59;50.44;99422.72;4122097;28;20239;-66
2022/08/19 05:37:41;;;;;;;22.52;20.23;;;;;;;26.62;49.97;99435.81;4124960;28;20234;-65
2022/08/19 05:39:43;;;;;;;23.27;20.88;;;;;;;27.32;48.61;99432.44;4127901;28;20225;-66
2022/08/19 05:42:00;;;;;;;23.00;20.58;;;;;;;27.18;48.99;99452.13;4123143;28;20320;-64
2022/08/19 05:44:09;;;;;;;23.23;20.90;;;;;;;27.32;48.82;99452.34;4127903;28;20292;-64
2022/08/19 05:46:18;;;;;;;22.52;20.25;;;;;;;27.22;48.50;99446.91;4114179;28;20279;-64
2022/08/19 05:48:28;;;;;;;23.70;21.35;;;;;;;26.89;49.26;99446.41;4123415;28;20258;-66
2022/08/19 05:50:30;;;;;;;23.80;21.30;;;;;;;27.67;48.14;99450.59;4122201;28;20567;-64
2022/08/19 05:52:31;;;;;;;22.38;20.15;;;;;;;27.34;48.48;99452.88;4118308;28;20281;-64
2022/08/19 05:54:37;;;;;;;23.02;20.63;;;;;;;26.97;49.09;99459.50;4117544;28;20238;-64
2022/08/19 05:56:40;;;;;;;21.83;19.52;;;;;;;27.01;49.57;99459.75;4120269;28;20293;-64
2022/08/19 05:58:44;;;;;;;22.42;20.23;;;;;;;27.17;49.21;99469.56;4137643;28;20710;-63
2022/08/19 06:00:46;;;;;;;22.00;19.80;;;;;;;27.70;48.23;99471.06;4124302;28;20226;-64
2022/08/19 06:02:48;;;;;;;21.90;19.08;;;;;;;27.31;49.06;99460.81;4121004;28;20226;-64
2022/08/19 06:04:50;;;;;;;22.10;19.98;;;;;;;27.41;48.63;99466.22;4122194;28;20245;-64
2022/08/19 06:06:53;;;;;;;22.50;20.20;;;;;;;27.63;48.59;99468.63;4121323;28;21010;-64
2022/08/19 06:08:55;;;;;;;21.90;19.58;;;;;;;27.57;48.73;99464.28;4116437;28;20234;-65
2022/08/19 06:10:57;;;;;;;22.40;20.30;;;;;;;28.08;47.31;99449.56;4120058;28;20234;-64
2022/08/19 06:12:58;;;;;;;22.35;20.15;;;;;;;27.29;48.97;99472.00;4118444;28;20233;-64
2022/08/19 06:15:05;;;;;;;21.95;19.77;;;;;;;27.59;48.08;99470.28;4119339;28;20272;-64
2022/08/19 06:17:07;;;;;;;21.73;19.52;;;;;;;27.99;47.27;99469.28;4124523;28;20226;-64
2022/08/19 06:19:15;;;;;;;22.65;19.98;;;;;;;27.61;48.05;99466.19;4122548;28;20774;-64
2022/08/19 06:21:22;;;;;;;21.25;19.02;;;;;;;27.66;47.83;99461.81;4131212;28;20279;-64
2022/08/19 06:23:23;;;;;;;21.15;19.13;;;;;;;27.54;48.23;99456.63;4120267;28;20293;-64
2022/08/19 06:25:25;;;;;;;22.20;19.92;;;;;;;27.62;47.96;99462.38;4120292;28;20234;-64
2022/08/19 06:27:32;;;;;;;22.30;20.08;;;;;;;27.44;48.49;99460.22;4157056;28;20319;-64
2022/08/19 06:29:34;;;;;;;24.50;20.17;;;;;;;27.30;48.38;99451.81;4122870;28;20229;-64
2022/08/19 06:31:38;;;;;;;22.05;19.88;;;;;;;27.37;48.72;99457.78;4123001;28;20238;-64
2022/08/19 06:33:41;;;;;;;24.23;21.42;;;;;;;27.53;48.56;99457.72;4123168;28;20241;-64
2022/08/19 06:35:43;;;;;;;22.73;20.45;;;;;;;27.41;48.19;99468.97;4119855;28;20242;-64
2022/08/19 06:37:50;;;;;;;22.08;19.88;;;;;;;27.56;48.29;99460.72;4126390;28;21027;-64
2022/08/19 06:39:52;;;;;;;21.83;19.83;;;;;;;27.71;47.50;99475.44;4124518;28;20321;-64
2022/08/19 06:41:58;;;;;;;22.20;19.70;;;;;;;27.61;47.92;99477.09;4123400;28;20292;-64
2022/08/19 06:44:00;;;;;;;24.02;20.42;;;;;;;27.69;47.89;99478.44;4122398;28;20246;-64
2022/08/19 06:46:03;;;;;;;21.67;19.58;;;;;;;28.09;46.98;99471.13;4125249;28;20612;-64
2022/08/19 06:48:07;;;;;;;21.58;19.48;;;;;;;28.11;46.53;99481.78;4125406;28;20666;-66
2022/08/19 06:50:08;;;;;;;19.65;17.65;;;;;;;28.38;46.08;99478.63;4122306;28;20236;-62
2022/08/19 06:52:12;;;;;;;21.35;19.30;;;;;;;28.41;46.01;99496.34;4123276;28;20229;-63
2022/08/19 06:54:17;;;;;;;19.73;17.90;;;;;;;27.70;47.70;99492.91;4121510;28;20877;-64
2022/08/19 06:56:34;;;;;;;21.70;19.23;;;;;;;27.75;47.10;99485.53;4121680;28;20288;-62
2022/08/19 06:58:36;;;;;;;20.08;17.98;;;;;;;28.21;46.34;99479.00;4126725;28;20229;-62
2022/08/19 07:00:38;;;;;;;19.83;17.83;;;;;;;28.23;46.41;99490.47;4127142;28;20234;-63
2022/08/19 07:02:43;;;;;;;19.25;17.35;;;;;;;28.08;46.72;99483.16;4121650;28;20242;-63
2022/08/19 07:04:57;;;;;;;20.00;17.98;;;;;;;27.77;47.68;99479.75;4116048;28;20327;-62
2022/08/19 07:07:03;;;;;;;20.00;18.00;;;;;;;28.14;46.58;99476.56;4123750;28;20789;-62
2022/08/19 07:09:21;;;;;;;20.92;18.83;;;;;;;28.34;46.34;99483.00;4130978;28;20237;-63
2022/08/19 07:11:22;;;;;;;19.50;17.60;;;;;;;28.72;45.00;99486.84;4127920;28;20854;-65
2022/08/19 07:13:24;;;;;;;18.42;16.60;;;;;;;28.28;45.66;99487.72;4126784;28;20241;-62
2022/08/19 07:15:26;;;;;;;18.10;16.20;;;;;;;28.77;44.96;99483.25;4124156;28;20933;-62
2022/08/19 07:17:29;;;;;;;17.90;16.17;;;;;;;28.62;45.54;99497.03;4122916;28;20245;-62
2022/08/19 07:19:32;;;;;;;18.38;16.67;;;;;;;27.92;46.14;99484.34;4125515;28;20311;-62
2022/08/19 07:21:35;;;;;;;17.80;16.10;;;;;;;28.69;44.41;99489.34;4124424;28;20235;-63
2022/08/19 07:23:38;;;;;;;16.23;14.65;;;;;;;28.74;44.43;99495.56;4126677;28;20241;-63
2022/08/19 07:25:40;;;;;;;17.08;15.48;;;;;;;28.51;45.21;99493.53;4127457;28;20247;-63
2022/08/19 07:27:41;;;;;;;16.58;14.55;;;;;;;28.29;44.76;99483.88;4128553;28;20664;-64
2022/08/19 07:29:55;;;;;;;15.38;13.88;;;;;;;28.93;43.86;99486.66;4129389;28;20226;-63
2022/08/19 07:31:59;;;;;;;16.75;14.52;;;;;;;28.98;44.03;99492.06;4123703;28;20233;-64
2022/08/19 07:34:01;;;;;;;15.20;13.65;;;;;;;28.15;44.78;99485.59;4127343;28;20295;-63
2022/08/19 07:36:10;;;;;;;14.43;12.93;;;;;;;28.75;44.16;99490.94;4123895;28;20244;-66
2022/08/19 07:38:11;;;;;;;13.73;12.35;;;;;;;28.60;43.86;99480.91;4129734;28;20229;-63
2022/08/19 07:40:13;;;;;;;17.77;12.85;;;;;;;28.59;44.00;99482.00;4127043;28;20360;-63
2022/08/19 07:42:16;;;;;;;13.18;11.88;;;;;;;29.09;43.53;99482.66;4129939;28;20315;-63
2022/08/19 07:44:19;;;;;;;14.15;12.75;;;;;;;28.07;44.64;99484.25;4138784;28;20237;-63
2022/08/19 07:46:21;;;;;;;14.30;12.90;;;;;;;28.60;44.36;99478.19;4120103;28;20229;-63
2022/08/19 07:48:28;;;;;;;17.17;12.60;;;;;;;27.83;45.68;99478.66;4127166;28;20331;-63
2022/08/19 07:50:29;;;;;;;16.70;12.82;;;;;;;27.65;46.01;99485.53;4123997;28;20233;-63
2022/08/19 07:52:31;;;;;;;14.88;12.80;;;;;;;28.32;45.28;99468.81;4126056;28;20296;-64
2022/08/19 07:54:35;;;;;;;13.98;12.57;;;;;;;28.62;44.32;99473.22;4125740;28;20836;-64
2022/08/19 07:56:37;;;;;;;14.25;12.65;;;;;;;27.99;45.60;99469.28;4121014;28;20739;-63
2022/08/19 07:58:42;;;;;;;14.02;12.30;;;;;;;28.22;44.90;99457.97;4122743;28;20769;-63
2022/08/19 08:00:46;;;;;;;13.45;12.10;;;;;;;28.45;45.09;99459.97;4124398;28;20957;-63
2022/08/19 08:02:48;;;;;;;12.45;11.15;;;;;;;27.85;45.22;99454.59;4123685;28;20260;-63
2022/08/19 08:09:36;;;;;;;11.43;10.30;;;;;;;27.40;45.80;99450.97;4121334;28;20233;-63
2022/08/19 08:11:56;;;;;;;12.38;11.13;;;;;;;28.46;44.50;99458.03;4123397;28;20237;-63
2022/08/19 08:14:07;;;;;;;12.43;11.13;;;;;;;27.92;44.82;99463.31;4127790;28;20234;-63
2022/08/19 08:16:31;;;;;;;11.55;9.98;;;;;;;28.81;44.24;99453.41;4122117;28;20643;-63
2022/08/19 08:18:41;;;;;;;10.50;9.52;;;;;;;28.22;44.92;99469.69;4127859;28;20244;-64
2022/08/19 08:20:42;;;;;;;11.13;10.02;;;;;;;28.73;43.81;99466.59;4128524;28;20325;-63
2022/08/19 08:25:16;;;;;;;11.05;9.85;;;;;;;28.98;43.72;99467.44;4125289;28;20946;-64
2022/08/19 08:27:18;;;;;;;11.43;10.23;;;;;;;27.93;44.68;99469.59;4125491;28;20229;-64
2022/08/19 08:29:28;;;;;;;11.30;10.15;;;;;;;27.90;44.76;99465.50;4127051;28;20797;-64
2022/08/19 08:31:36;;;;;;;10.73;9.60;;;;;;;27.55;45.23;99471.91;4122599;28;20237;-64
2022/08/19 08:33:38;;;;;;;11.00;9.85;;;;;;;27.87;44.58;99455.16;4122240;28;20237;-63
2022/08/19 08:35:43;;;;;;;9.93;8.93;;;;;;;28.96;43.14;99475.13;4120064;28;20262;-64
2022/08/19 08:37:46;;;;;;;12.02;9.75;;;;;;;28.83;43.30;99482.13;4127726;28;20307;-63
2022/08/19 08:39:51;;;;;;;12.77;9.75;;;;;;;29.64;42.36;99471.41;4123346;28;20860;-63
2022/08/19 08:42:01;;;;;;;10.90;9.77;;;;;;;27.90;44.62;99479.16;4130428;28;20714;-64
2022/08/19 08:44:43;;;;;;;11.20;10.00;;;;;;;29.23;42.72;99479.28;4106836;28;20235;-63
2022/08/19 08:46:50;;;;;;;12.88;10.35;;;;;;;29.55;42.35;99475.06;4121195;28;20233;-64
2022/08/19 08:49:00;;;;;;;10.95;9.23;;;;;;;28.89;43.17;99491.88;4123318;28;20245;-64
2022/08/19 08:51:05;;;;;;;12.30;9.43;;;;;;;28.77;43.48;99487.91;4123165;28;20632;-64
2022/08/19 08:53:19;;;;;;;11.18;9.68;;;;;;;28.05;44.86;99480.97;4125336;28;20265;-64
2022/08/19 08:55:31;;;;;;;11.95;9.35;;;;;;;28.60;43.77;99475.44;4122589;28;20619;-64
2022/08/19 08:57:54;;;;;;;10.43;9.30;;;;;;;29.06;43.10;99480.50;4123783;28;20222;-64
2022/08/19 09:00:00;;;;;;;10.73;9.02;;;;;;;28.18;45.03;99476.84;4124640;28;20561;-64
2022/08/19 09:02:02;;;;;;;9.65;8.65;;;;;;;28.99;43.69;99471.81;4125860;28;20621;-64
2022/08/19 09:04:06;;;;;;;9.73;8.82;;;;;;;28.06;45.09;99465.41;4120336;28;20237;-63
2022/08/19 09:06:51;;;;;;;10.18;9.18;;;;;;;28.05;45.05;99467.31;4122157;28;20238;-64
2022/08/19 09:09:32;;;;;;;10.95;9.43;;;;;;;28.67;43.55;99464.97;4128553;28;20233;-64
2022/08/19 09:11:33;;;;;;;10.63;9.52;;;;;;;28.43;44.30;99461.34;4128491;28;21040;-64
2022/08/19 09:14:02;;;;;;;11.10;10.00;;;;;;;28.59;43.41;99467.53;4123692;28;20747;-64
2022/08/19 09:16:12;;;;;;;11.18;9.30;;;;;;;28.88;43.19;99470.28;4126312;28;20296;-64
2022/08/19 09:18:16;;;;;;;11.70;8.75;;;;;;;29.32;42.80;99477.53;4121446;28;20459;-64
2022/08/19 09:20:23;;;;;;;10.23;9.20;;;;;;;28.43;44.27;99478.59;4124873;28;20718;-64
2022/08/19 09:22:27;;;;;;;12.18;9.73;;;;;;;27.38;45.23;99480.44;4126285;28;20338;-64
2022/08/19 09:24:29;;;;;;;12.48;9.18;;;;;;;28.37;43.37;99485.19;4125903;28;20241;-64
2022/08/19 09:26:32;;;;;;;9.23;8.20;;;;;;;29.43;42.23;99468.09;4126834;28;20624;-64
2022/08/19 09:28:52;;;;;;;9.57;8.10;;;;;;;29.13;42.89;99480.16;4122052;28;20225;-63
2022/08/19 09:30:54;;;;;;;9.82;8.07;;;;;;;29.43;42.26;99491.91;4126118;28;20234;-64
2022/08/19 09:32:56;;;;;;;10.05;8.88;;;;;;;28.66;43.17;99493.44;4123998;28;20238;-64
2022/08/19 09:35:00;;;;;;;20.55;8.65;;;;;;;29.89;41.75;99488.63;4126242;28;20280;-64
2022/08/19 09:37:09;;;;;;;15.75;8.48;;;;;;;29.92;41.23;99484.50;4127740;28;20226;-64
2022/08/19 09:39:11;;;;;;;10.25;8.45;;;;;;;28.68;41.67;99487.69;4125328;28;20253;-65
2022/08/19 09:41:19;;;;;;;11.38;8.13;;;;;;;29.31;41.85;99484.13;4124374;28;20230;-64
2022/08/19 09:43:21;;;;;;;8.35;7.43;;;;;;;29.35;41.61;99493.38;4128497;28;20732;-64
2022/08/19 09:45:34;;;;;;;11.27;7.10;;;;;;;29.86;40.76;99500.19;4119305;28;20246;-64
2022/08/19 09:47:37;;;;;;;9.25;7.47;;;;;;;29.66;40.68;99498.50;4126649;28;20630;-64
2022/08/19 09:49:48;;;;;;;8.88;7.38;;;;;;;29.73;41.20;99498.19;4126138;28;20320;-64
2022/08/19 09:51:55;;;;;;;8.68;7.43;;;;;;;30.04;41.46;99476.63;4124459;28;20245;-64